This is the latest recevied weather packets stored in our database for station/object DK1ZX-10. If no packets are shown the sender has not sent any weather packets the latest 10 day(s).
| Time | Temp. | Humidity | Pressure | Rain* | Wind** | Luminosity | Snow |
|---|---|---|---|---|---|---|---|
| 1777319287 | 12.78° C | 31% | 1019.4 hPa | - | - | - | - |
| 1777318087 | 13.33° C | 31% | 1019.4 hPa | - | - | - | - |
| 1777316887 | 13.33° C | 31% | 1019.2 hPa | - | - | - | - |
| 1777315687 | 13.89° C | 30% | 1019.2 hPa | - | - | - | - |
| 1777314487 | 14.44° C | 28% | 1018.9 hPa | - | - | - | - |
| 1777313287 | 13.89° C | 27% | 1018.7 hPa | - | - | - | - |
| 1777312087 | 15° C | 25% | 1018.7 hPa | - | - | - | - |
| 1777310887 | 16.67° C | 22% | 1018.7 hPa | - | - | - | - |
| 1777309686 | 17.78° C | 22% | 1018.8 hPa | - | - | - | - |
| 1777308486 | 20° C | 18% | 1018.7 hPa | - | - | - | - |
| 1777307286 | 20.56° C | 17% | 1018.9 hPa | - | - | - | - |
| 1777306086 | 21.11° C | 15% | 1018.9 hPa | - | - | - | - |
| 1777304886 | 21.11° C | 15% | 1019.1 hPa | - | - | - | - |
| 1777303686 | 21.11° C | 16% | 1019 hPa | - | - | - | - |
| 1777302486 | 22.22° C | 15% | 1019.2 hPa | - | - | - | - |
| 1777301286 | 22.22° C | 16% | 1019.4 hPa | - | - | - | - |
| 1777300086 | 21.11° C | 18% | 1019.5 hPa | - | - | - | - |
| 1777298886 | 20.56° C | 18% | 1019.8 hPa | - | - | - | - |
| 1777297686 | 21.11° C | 18% | 1020 hPa | - | - | - | - |
| 1777296486 | 21.11° C | 18% | 1020.1 hPa | - | - | - | - |
| 1777295286 | 20.56° C | 21% | 1020.3 hPa | - | - | - | - |
| 1777294085 | 21.67° C | 19% | 1020.4 hPa | - | - | - | - |
| 1777292885 | 23.33° C | 17% | 1020.5 hPa | - | - | - | - |
| 1777291684 | 21.67° C | 20% | 1020.8 hPa | - | - | - | - |
| 1777290485 | 21.67° C | 19% | 1021 hPa | - | - | - | - |
* Rain since midnight (hover to see other rain measurements)
** Current wind speed in m/s (hover to see current wind gust speed)